Wetterdaten: Woche 16.08.10 - 22.08.10 (KW33)
Datum Zeit Temperatur Luftfeuchte Luftdruck Niederschlag Windrichtung Sonnenschein Solar Wind
16.08.2010 00:00 12,2 C 94 % 1012,2 hPa 0,0 l/m SW 0,00 h 0 W/m 12,8 km/h (3 Bft)
16.08.2010 01:00 12,2 C 92 % 1011,7 hPa 0,0 l/m W-SW 0,00 h 0 W/m 15,8 km/h (3 Bft)
16.08.2010 02:00 12,4 C 84 % 1011,8 hPa 0,0 l/m W-SW 0,00 h 0 W/m 18,2 km/h (3 Bft)
16.08.2010 03:00 11,6 C 88 % 1011,8 hPa 0,0 l/m SW 0,00 h 0 W/m 8,7 km/h (2 Bft)
16.08.2010 04:00 11,4 C 88 % 1011,2 hPa 0,0 l/m SW 0,00 h 0 W/m 13,2 km/h (3 Bft)
16.08.2010 05:00 11,1 C 89 % 1010,9 hPa 0,0 l/m SW 0,00 h 0 W/m 11,8 km/h (2 Bft)
16.08.2010 06:00 11,3 C 89 % 1010,6 hPa 0,0 l/m SW 0,00 h 13 W/m 12,2 km/h (2 Bft)
16.08.2010 07:00 11,9 C 86 % 1010,4 hPa 0,0 l/m SW 0,08 h 65 W/m 13,0 km/h (3 Bft)
16.08.2010 08:00 13,0 C 79 % 1010,6 hPa 0,0 l/m SW 0,00 h 123 W/m 33,5 km/h (5 Bft)
16.08.2010 09:00 12,9 C 80 % 1011,2 hPa 0,0 l/m SW 0,00 h 78 W/m 34,2 km/h (5 Bft)
16.08.2010 10:00 13,0 C 83 % 1011,5 hPa 0,0 l/m SW 0,00 h 200 W/m 27,4 km/h (4 Bft)
16.08.2010 11:00 14,0 C 81 % 1011,7 hPa 0,0 l/m SW 0,00 h 251 W/m 25,5 km/h (4 Bft)
16.08.2010 12:00 14,1 C 81 % 1011,9 hPa 0,0 l/m W-SW 0,08 h 321 W/m 29,3 km/h (5 Bft)
16.08.2010 13:00 14,5 C 79 % 1012,1 hPa 0,0 l/m W-SW 0,00 h 296 W/m 36,9 km/h (5 Bft)
16.08.2010 14:00 14,1 C 79 % 1012,9 hPa 0,0 l/m W-SW 0,00 h 278 W/m 32,2 km/h (5 Bft)
16.08.2010 15:00 14,2 C 81 % 1013,0 hPa 0,0 l/m SW 0,42 h 441 W/m 30,0 km/h (5 Bft)
16.08.2010 16:00 14,7 C 78 % 1013,2 hPa 0,0 l/m W-SW 0,50 h 354 W/m 33,7 km/h (5 Bft)
16.08.2010 17:00 14,1 C 80 % 1013,4 hPa 0,0 l/m W-SW 0,00 h 141 W/m 31,7 km/h (5 Bft)
16.08.2010 18:00 13,4 C 84 % 1013,3 hPa 0,0 l/m W-SW 0,00 h 60 W/m 27,6 km/h (4 Bft)
16.08.2010 19:00 12,7 C 89 % 1013,1 hPa 0,2 l/m W-SW 0,00 h 25 W/m 25,7 km/h (4 Bft)
16.08.2010 20:00 12,8 C 88 % 1013,0 hPa 0,0 l/m W-SW 0,00 h 0 W/m 29,7 km/h (5 Bft)
16.08.2010 21:00 12,9 C 86 % 1013,4 hPa 0,0 l/m W 0,00 h 0 W/m 35,9 km/h (5 Bft)
16.08.2010 22:00 12,7 C 87 % 1013,6 hPa 0,0 l/m SW 0,00 h 0 W/m 32,7 km/h (5 Bft)
16.08.2010 23:00 12,8 C 86 % 1014,0 hPa 0,0 l/m W-SW 0,00 h 0 W/m 29,9 km/h (5 Bft)
17.08.2010 00:00 12,9 C 86 % 1013,9 hPa 0,0 l/m W-SW 0,00 h 0 W/m 33,1 km/h (5 Bft)
17.08.2010 01:00 13,0 C 86 % 1013,3 hPa 0,0 l/m W-SW 0,00 h 0 W/m 32,5 km/h (5 Bft)
17.08.2010 02:00 12,8 C 88 % 1013,0 hPa 0,0 l/m W 0,00 h 0 W/m 37,3 km/h (5 Bft)
17.08.2010 03:00 12,5 C 90 % 1013,0 hPa 0,6 l/m W-SW 0,00 h 0 W/m 31,9 km/h (5 Bft)
17.08.2010 04:00 12,0 C 94 % 1012,8 hPa 1,4 l/m W-SW 0,00 h 0 W/m 28,7 km/h (4 Bft)
17.08.2010 05:00 12,1 C 95 % 1012,5 hPa 0,8 l/m W-SW 0,00 h 0 W/m 30,9 km/h (5 Bft)
17.08.2010 06:00 12,3 C 95 % 1012,3 hPa 0,0 l/m SW 0,00 h 0 W/m 29,1 km/h (5 Bft)
17.08.2010 07:00 12,5 C 95 % 1012,6 hPa 0,0 l/m SW 0,00 h 14 W/m 29,0 km/h (5 Bft)
17.08.2010 08:00 12,8 C 94 % 1013,1 hPa 0,2 l/m SW 0,00 h 37 W/m 24,9 km/h (4 Bft)
17.08.2010 09:00 13,3 C 93 % 1013,6 hPa 0,0 l/m W-SW 0,00 h 82 W/m 23,3 km/h (4 Bft)
17.08.2010 10:00 14,1 C 90 % 1013,6 hPa 0,0 l/m W-SW 0,00 h 163 W/m 23,9 km/h (4 Bft)
17.08.2010 11:00 14,8 C 86 % 1013,6 hPa 0,0 l/m SW 0,00 h 234 W/m 32,7 km/h (5 Bft)
17.08.2010 12:00 15,9 C 82 % 1013,6 hPa 0,0 l/m W-SW 0,42 h 434 W/m 31,9 km/h (5 Bft)
17.08.2010 13:00 17,1 C 76 % 1013,5 hPa 0,0 l/m W-SW 0,92 h 587 W/m 33,9 km/h (5 Bft)
17.08.2010 14:00 17,8 C 71 % 1013,4 hPa 0,0 l/m W-SW 0,75 h 536 W/m 31,1 km/h (5 Bft)
17.08.2010 15:00 17,1 C 67 % 1013,4 hPa 0,0 l/m W 0,08 h 337 W/m 27,8 km/h (4 Bft)
17.08.2010 16:00 16,3 C 66 % 1013,3 hPa 0,0 l/m W-SW 0,00 h 139 W/m 23,6 km/h (4 Bft)
17.08.2010 17:00 15,8 C 68 % 1013,4 hPa 0,0 l/m W 0,00 h 99 W/m 15,8 km/h (3 Bft)
17.08.2010 18:00 15,2 C 64 % 1013,3 hPa 0,0 l/m W 0,00 h 101 W/m 12,2 km/h (2 Bft)
17.08.2010 19:00 15,0 C 72 % 1012,7 hPa 0,0 l/m W-SW 0,00 h 49 W/m 10,8 km/h (2 Bft)
17.08.2010 20:00 14,5 C 76 % 1012,8 hPa 0,0 l/m SW 0,00 h 11 W/m 10,7 km/h (2 Bft)
17.08.2010 21:00 14,2 C 79 % 1012,9 hPa 0,0 l/m SW 0,00 h 0 W/m 11,4 km/h (2 Bft)
17.08.2010 22:00 14,0 C 80 % 1012,7 hPa 0,0 l/m SW 0,00 h 0 W/m 9,5 km/h (2 Bft)
17.08.2010 23:00 13,7 C 82 % 1012,6 hPa 0,0 l/m SW 0,00 h 0 W/m 8,0 km/h (2 Bft)
18.08.2010 00:00 13,4 C 84 % 1012,8 hPa 0,0 l/m SW 0,00 h 0 W/m 7,8 km/h (2 Bft)
18.08.2010 01:00 13,3 C 85 % 1012,5 hPa 0,0 l/m SW 0,00 h 0 W/m 9,0 km/h (2 Bft)
18.08.2010 02:00 13,3 C 88 % 1011,9 hPa 0,0 l/m S-SW 0,00 h 0 W/m 7,9 km/h (2 Bft)
18.08.2010 03:00 13,5 C 88 % 1011,3 hPa 0,0 l/m SW 0,00 h 0 W/m 10,1 km/h (2 Bft)
18.08.2010 04:00 13,9 C 87 % 1010,8 hPa 0,0 l/m SW 0,00 h 0 W/m 10,5 km/h (2 Bft)
18.08.2010 05:00 13,6 C 89 % 1010,2 hPa 0,0 l/m S-SW 0,00 h 0 W/m 6,5 km/h (2 Bft)
18.08.2010 06:00 13,3 C 91 % 1010,2 hPa 0,0 l/m SW 0,00 h 11 W/m 5,3 km/h (1 Bft)
18.08.2010 07:00 13,4 C 92 % 1010,3 hPa 0,0 l/m SW 0,00 h 49 W/m 5,2 km/h (1 Bft)
18.08.2010 08:00 14,1 C 92 % 1010,0 hPa 0,0 l/m SW 0,00 h 69 W/m 5,6 km/h (1 Bft)
18.08.2010 09:00 14,9 C 90 % 1010,1 hPa 0,0 l/m S-SW 0,00 h 110 W/m 9,0 km/h (2 Bft)
18.08.2010 10:00 15,5 C 88 % 1010,3 hPa 0,0 l/m W-SW 0,00 h 157 W/m 9,1 km/h (2 Bft)
18.08.2010 11:00 16,4 C 86 % 1010,2 hPa 0,0 l/m SW 0,00 h 180 W/m 7,6 km/h (2 Bft)
18.08.2010 12:00 17,0 C 86 % 1010,1 hPa 0,2 l/m SW 0,00 h 283 W/m 12,0 km/h (2 Bft)
18.08.2010 13:00 17,2 C 79 % 1010,0 hPa 0,0 l/m SW 0,00 h 217 W/m 14,8 km/h (3 Bft)
18.08.2010 14:00 16,7 C 82 % 1009,9 hPa 0,0 l/m SW 0,00 h 177 W/m 15,8 km/h (3 Bft)
18.08.2010 15:00 16,9 C 82 % 1010,1 hPa 0,0 l/m S-SW 0,00 h 214 W/m 18,8 km/h (3 Bft)
18.08.2010 16:00 17,0 C 82 % 1010,3 hPa 0,0 l/m W-SW 0,00 h 229 W/m 23,1 km/h (4 Bft)
18.08.2010 17:00 17,2 C 79 % 1010,3 hPa 0,0 l/m W-SW 0,00 h 194 W/m 23,3 km/h (4 Bft)
18.08.2010 18:00 17,1 C 80 % 1010,3 hPa 0,0 l/m W-SW 0,17 h 125 W/m 15,8 km/h (3 Bft)
18.08.2010 19:00 17,0 C 80 % 1010,1 hPa 0,0 l/m W-SW 0,00 h 58 W/m 12,2 km/h (2 Bft)
18.08.2010 20:00 16,6 C 81 % 1010,3 hPa 0,0 l/m W-SW 0,00 h 11 W/m 10,9 km/h (2 Bft)
18.08.2010 21:00 16,1 C 83 % 1010,9 hPa 0,0 l/m W-SW 0,00 h 0 W/m 13,8 km/h (3 Bft)
18.08.2010 22:00 15,8 C 85 % 1011,2 hPa 0,0 l/m W-SW 0,00 h 0 W/m 13,8 km/h (3 Bft)
18.08.2010 23:00 15,4 C 87 % 1011,5 hPa 0,0 l/m W 0,00 h 0 W/m 13,4 km/h (3 Bft)
19.08.2010 00:00 15,2 C 88 % 1011,8 hPa 0,0 l/m W-SW 0,00 h 0 W/m 16,0 km/h (3 Bft)
19.08.2010 01:00 15,0 C 88 % 1012,2 hPa 0,0 l/m W-SW 0,00 h 0 W/m 16,5 km/h (3 Bft)
19.08.2010 02:00 14,8 C 89 % 1012,4 hPa 0,0 l/m W-SW 0,00 h 0 W/m 19,7 km/h (3 Bft)
19.08.2010 03:00 14,5 C 89 % 1012,8 hPa 0,0 l/m W-SW 0,00 h 0 W/m 20,6 km/h (4 Bft)
19.08.2010 04:00 14,1 C 92 % 1013,1 hPa 0,0 l/m W-SW 0,00 h 0 W/m 14,5 km/h (3 Bft)
19.08.2010 05:00 14,0 C 93 % 1013,3 hPa 0,0 l/m SW 0,00 h 0 W/m 16,4 km/h (3 Bft)
19.08.2010 06:00 13,9 C 93 % 1013,9 hPa 0,0 l/m S-SW 0,00 h 9 W/m 7,6 km/h (2 Bft)
19.08.2010 07:00 14,0 C 95 % 1014,6 hPa 0,0 l/m S-SW 0,00 h 32 W/m 6,7 km/h (2 Bft)
19.08.2010 08:00 14,4 C 95 % 1015,2 hPa 0,0 l/m SW 0,00 h 97 W/m 11,4 km/h (2 Bft)
19.08.2010 09:00 15,1 C 93 % 1015,7 hPa 0,0 l/m S-SW 0,00 h 144 W/m 12,0 km/h (2 Bft)
19.08.2010 10:00 15,8 C 90 % 1016,3 hPa 0,0 l/m SW 0,33 h 299 W/m 12,4 km/h (3 Bft)
19.08.2010 11:00 16,9 C 86 % 1016,5 hPa 0,0 l/m S-SW 0,50 h 408 W/m 12,1 km/h (2 Bft)
19.08.2010 12:00 18,5 C 78 % 1016,1 hPa 0,0 l/m S-SW 0,50 h 549 W/m 13,4 km/h (3 Bft)
19.08.2010 13:00 19,9 C 73 % 1015,8 hPa 0,0 l/m SW 1,00 h 831 W/m 16,6 km/h (3 Bft)
19.08.2010 14:00 21,1 C 66 % 1015,7 hPa 0,0 l/m SW 0,92 h 782 W/m 14,5 km/h (3 Bft)
19.08.2010 15:00 20,7 C 66 % 1015,6 hPa 0,0 l/m SW 0,17 h 353 W/m 11,7 km/h (2 Bft)
19.08.2010 16:00 21,6 C 63 % 1015,3 hPa 0,0 l/m SW 0,92 h 596 W/m 9,9 km/h (2 Bft)
19.08.2010 17:00 21,1 C 68 % 1015,4 hPa 0,0 l/m SW 0,75 h 356 W/m 15,2 km/h (3 Bft)
19.08.2010 18:00 20,5 C 71 % 1015,8 hPa 0,0 l/m SW 0,67 h 179 W/m 15,0 km/h (3 Bft)
19.08.2010 19:00 19,3 C 77 % 1016,1 hPa 0,0 l/m SW 0,08 h 60 W/m 8,2 km/h (2 Bft)
19.08.2010 20:00 17,4 C 86 % 1016,7 hPa 0,0 l/m N 0,00 h 10 W/m 0,5 km/h (0 Bft)
19.08.2010 21:00 15,8 C 92 % 1017,3 hPa 0,0 l/m N 0,00 h 0 W/m 0,0 km/h (0 Bft)
19.08.2010 22:00 15,0 C 94 % 1017,6 hPa 0,0 l/m N 0,00 h 0 W/m 0,1 km/h (0 Bft)
19.08.2010 23:00 14,4 C 96 % 1017,8 hPa 0,0 l/m N 0,00 h 0 W/m 1,5 km/h (1 Bft)
20.08.2010 00:00 14,2 C 96 % 1017,8 hPa 0,0 l/m N 0,00 h 0 W/m 0,4 km/h (0 Bft)
20.08.2010 01:00 13,7 C 97 % 1017,7 hPa 0,0 l/m N-NO 0,00 h 0 W/m 2,3 km/h (1 Bft)
20.08.2010 02:00 13,5 C 97 % 1017,8 hPa 0,0 l/m N 0,00 h 0 W/m 2,1 km/h (1 Bft)
20.08.2010 03:00 12,9 C 96 % 1018,0 hPa 0,0 l/m N-NO 0,00 h 0 W/m 3,6 km/h (1 Bft)
20.08.2010 04:00 12,5 C 96 % 1018,1 hPa 0,0 l/m N-NO 0,00 h 0 W/m 5,7 km/h (1 Bft)
20.08.2010 05:00 12,0 C 96 % 1018,0 hPa 0,0 l/m N-NW 0,00 h 0 W/m 3,3 km/h (1 Bft)
20.08.2010 06:00 11,9 C 96 % 1018,4 hPa 0,0 l/m N-NW 0,08 h 18 W/m 4,7 km/h (1 Bft)
20.08.2010 07:00 12,3 C 94 % 1018,8 hPa 0,0 l/m N-NW 0,17 h 70 W/m 4,5 km/h (1 Bft)
20.08.2010 08:00 13,4 C 92 % 1019,2 hPa 0,0 l/m N-NW 0,17 h 151 W/m 3,3 km/h (1 Bft)
20.08.2010 09:00 15,0 C 89 % 1019,2 hPa 0,0 l/m N 0,08 h 243 W/m 5,3 km/h (1 Bft)
20.08.2010 10:00 17,0 C 86 % 1019,4 hPa 0,0 l/m N 0,50 h 391 W/m 4,8 km/h (1 Bft)
20.08.2010 11:00 20,2 C 77 % 1019,4 hPa 0,0 l/m N-NO 1,00 h 671 W/m 4,1 km/h (1 Bft)
20.08.2010 12:00 22,5 C 71 % 1019,3 hPa 0,0 l/m N-NO 0,92 h 666 W/m 4,1 km/h (1 Bft)
20.08.2010 13:00 24,5 C 66 % 1019,0 hPa 0,0 l/m N-NW 1,00 h 754 W/m 5,5 km/h (1 Bft)
20.08.2010 14:00 25,9 C 60 % 1018,8 hPa 0,0 l/m NO 0,92 h 780 W/m 8,3 km/h (2 Bft)
20.08.2010 15:00 25,8 C 60 % 1018,6 hPa 0,0 l/m NW 0,25 h 299 W/m 6,1 km/h (2 Bft)
20.08.2010 16:00 26,1 C 59 % 1018,4 hPa 0,0 l/m NW 0,42 h 401 W/m 4,7 km/h (1 Bft)
20.08.2010 17:00 25,7 C 61 % 1018,6 hPa 0,0 l/m N-NO 0,33 h 203 W/m 7,1 km/h (2 Bft)
20.08.2010 18:00 24,6 C 70 % 1018,8 hPa 0,0 l/m W-SW 0,25 h 146 W/m 3,9 km/h (1 Bft)
20.08.2010 19:00 22,8 C 82 % 1019,2 hPa 0,0 l/m N 0,00 h 41 W/m 0,7 km/h (0 Bft)
20.08.2010 20:00 21,1 C 88 % 1019,7 hPa 0,0 l/m N 0,00 h 9 W/m 0,3 km/h (0 Bft)
20.08.2010 21:00 20,0 C 90 % 1020,4 hPa 0,0 l/m N 0,00 h 0 W/m 0,3 km/h (0 Bft)
20.08.2010 22:00 19,1 C 93 % 1020,8 hPa 0,0 l/m N 0,00 h 0 W/m 0,3 km/h (0 Bft)
20.08.2010 23:00 18,1 C 95 % 1021,2 hPa 0,0 l/m N 0,00 h 0 W/m 0,8 km/h (0 Bft)
21.08.2010 00:00 17,7 C 96 % 1021,7 hPa 0,0 l/m N 0,00 h 0 W/m 0,0 km/h (0 Bft)
21.08.2010 01:00 17,7 C 96 % 1021,8 hPa 0,0 l/m N 0,00 h 0 W/m 0,4 km/h (0 Bft)
21.08.2010 02:00 17,2 C 97 % 1022,0 hPa 0,0 l/m N 0,00 h 0 W/m 0,3 km/h (0 Bft)
21.08.2010 03:00 16,7 C 97 % 1022,1 hPa 0,0 l/m N 0,00 h 0 W/m 0,5 km/h (0 Bft)
21.08.2010 04:00 16,3 C 98 % 1022,1 hPa 0,0 l/m N 0,00 h 0 W/m 0,3 km/h (0 Bft)
21.08.2010 05:00 16,1 C 98 % 1022,3 hPa 0,0 l/m N 0,00 h 0 W/m 0,0 km/h (0 Bft)
21.08.2010 06:00 15,6 C 98 % 1022,7 hPa 0,0 l/m N 0,08 h 14 W/m 0,0 km/h (0 Bft)
21.08.2010 07:00 16,0 C 98 % 1023,1 hPa 0,0 l/m N 0,50 h 97 W/m 0,1 km/h (0 Bft)
21.08.2010 08:00 17,5 C 95 % 1023,3 hPa 0,0 l/m N 0,00 h 117 W/m 0,0 km/h (0 Bft)
21.08.2010 09:00 20,1 C 89 % 1023,3 hPa 0,0 l/m N 1,00 h 426 W/m 1,7 km/h (1 Bft)
21.08.2010 10:00 22,9 C 75 % 1023,3 hPa 0,0 l/m O-SO 1,00 h 576 W/m 2,8 km/h (1 Bft)
21.08.2010 11:00 24,9 C 66 % 1023,1 hPa 0,0 l/m O-SO 1,00 h 712 W/m 5,7 km/h (1 Bft)
21.08.2010 12:00 25,9 C 64 % 1022,6 hPa 0,0 l/m SW 0,92 h 770 W/m 7,6 km/h (2 Bft)
21.08.2010 13:00 26,0 C 62 % 1022,0 hPa 0,0 l/m W-SW 0,50 h 474 W/m 4,8 km/h (1 Bft)
21.08.2010 14:00 26,6 C 60 % 1021,6 hPa 0,0 l/m S-SW 0,50 h 500 W/m 5,6 km/h (1 Bft)
21.08.2010 15:00 26,5 C 60 % 1021,3 hPa 0,0 l/m N-NW 0,33 h 375 W/m 3,9 km/h (1 Bft)
21.08.2010 16:00 27,9 C 56 % 1020,8 hPa 0,0 l/m W-NW 1,00 h 565 W/m 8,3 km/h (2 Bft)
21.08.2010 17:00 27,7 C 54 % 1020,5 hPa 0,0 l/m W-NW 1,00 h 402 W/m 6,8 km/h (2 Bft)
21.08.2010 18:00 26,9 C 60 % 1020,1 hPa 0,0 l/m W-NW 0,92 h 213 W/m 3,7 km/h (1 Bft)
21.08.2010 19:00 24,8 C 71 % 1020,0 hPa 0,0 l/m N 0,00 h 49 W/m 2,0 km/h (1 Bft)
21.08.2010 20:00 22,6 C 78 % 1020,4 hPa 0,0 l/m N 0,08 h 12 W/m 2,1 km/h (1 Bft)
21.08.2010 21:00 20,7 C 86 % 1020,6 hPa 0,0 l/m N 0,00 h 0 W/m 0,3 km/h (0 Bft)
21.08.2010 22:00 19,4 C 91 % 1020,8 hPa 0,0 l/m N 0,00 h 0 W/m 0,0 km/h (0 Bft)
21.08.2010 23:00 18,6 C 94 % 1020,7 hPa 0,0 l/m N 0,00 h 0 W/m 0,0 km/h (0 Bft)
22.08.2010 00:00 17,9 C 95 % 1020,6 hPa 0,0 l/m N 0,00 h 0 W/m 0,0 km/h (0 Bft)
22.08.2010 01:00 17,3 C 96 % 1020,4 hPa 0,0 l/m N 0,00 h 0 W/m 0,0 km/h (0 Bft)
22.08.2010 02:00 16,7 C 96 % 1020,0 hPa 0,0 l/m N 0,00 h 0 W/m 0,0 km/h (0 Bft)
22.08.2010 03:00 16,1 C 97 % 1019,6 hPa 0,0 l/m N 0,00 h 0 W/m 0,0 km/h (0 Bft)
22.08.2010 04:00 15,6 C 98 % 1019,2 hPa 0,0 l/m N 0,00 h 0 W/m 0,0 km/h (0 Bft)
22.08.2010 05:00 15,0 C 98 % 1018,8 hPa 0,0 l/m N 0,00 h 0 W/m 0,0 km/h (0 Bft)
22.08.2010 06:00 14,6 C 98 % 1018,7 hPa 0,0 l/m N 0,00 h 11 W/m 0,0 km/h (0 Bft)
22.08.2010 07:00 15,4 C 98 % 1018,7 hPa 0,0 l/m N 0,67 h 97 W/m 0,0 km/h (0 Bft)
22.08.2010 08:00 18,1 C 92 % 1018,5 hPa 0,0 l/m N 1,00 h 267 W/m 0,0 km/h (0 Bft)
22.08.2010 09:00 21,0 C 85 % 1018,0 hPa 0,0 l/m S-SW 1,00 h 443 W/m 2,9 km/h (1 Bft)
22.08.2010 10:00 23,5 C 76 % 1017,3 hPa 0,0 l/m S-SW 1,00 h 591 W/m 6,4 km/h (2 Bft)
22.08.2010 11:00 25,2 C 68 % 1016,8 hPa 0,0 l/m S-SW 1,00 h 702 W/m 5,7 km/h (1 Bft)
22.08.2010 12:00 26,8 C 62 % 1016,2 hPa 0,0 l/m NW 1,00 h 768 W/m 3,3 km/h (1 Bft)
22.08.2010 13:00 28,0 C 58 % 1015,4 hPa 0,0 l/m NW 1,00 h 770 W/m 6,2 km/h (2 Bft)
22.08.2010 14:00 28,9 C 50 % 1014,8 hPa 0,0 l/m W-NW 1,00 h 748 W/m 8,2 km/h (2 Bft)
22.08.2010 15:00 29,3 C 42 % 1014,2 hPa 0,0 l/m W-SW 1,00 h 660 W/m 9,8 km/h (2 Bft)
22.08.2010 16:00 29,3 C 41 % 1013,4 hPa 0,0 l/m W-SW 1,00 h 555 W/m 9,9 km/h (2 Bft)
22.08.2010 17:00 28,7 C 44 % 1012,7 hPa 0,0 l/m SW 0,83 h 348 W/m 9,0 km/h (2 Bft)
22.08.2010 18:00 26,5 C 57 % 1012,1 hPa 0,0 l/m SW 0,08 h 115 W/m 4,5 km/h (1 Bft)
22.08.2010 19:00 25,0 C 67 % 1011,9 hPa 0,0 l/m N 0,08 h 57 W/m 0,3 km/h (0 Bft)
22.08.2010 20:00 23,1 C 74 % 1012,4 hPa 0,0 l/m N 0,00 h 6 W/m 0,9 km/h (0 Bft)
22.08.2010 21:00 22,7 C 71 % 1012,8 hPa 0,0 l/m NW 0,00 h 0 W/m 3,3 km/h (1 Bft)
22.08.2010 22:00 21,5 C 77 % 1012,6 hPa 0,0 l/m N 0,00 h 0 W/m 0,1 km/h (0 Bft)
22.08.2010 23:00 19,4 C 86 % 1012,4 hPa 0,0 l/m N 0,00 h 0 W/m 0,0 km/h (0 Bft)
Min-Datum _ 16.08.10 22.08.10 18.08.10 - - - - 19.08.10
_ Min-Zeit 05:40 16:25 14:00 - - - - 20:20
Minimum _ 10,9 C 37 % 1009,8 hPa - - - - 0,0 km/h (0 Bft)
Max-Datum _ 22.08.10 21.08.10 21.08.10 17.08.10 - 16.08.10 19.08.10 16.08.10
_ Max-Zeit 15:45 07:25 08:00 04:00 - 07:25 14:25 08:55
Maximum _ 29,6 C 99 % 1023,4 hPa 1,4 l/m - 0,08 h 1016 W/m 46,7 km/h
W-SW (6 Bft)
Durchschnitt _ 17,3 C 82 % 1015,4 hPa #3,4 l/m SW #34:50 h 277 W/m 11,6 km/h (2 Bft)